Startpagina
METAR-TAF:

METAR-TAF

Vliegvelden :

Lagos, Nigeria

Murtala Muhammed International Airport

breedte: 06-35N, lengte: 003-20E, hoogte: 40 m

Actueel weer

Dit bericht is 9 uur en het 12 minuten geleden gemaakt, om 15:00 UTC
Wind 10 kt uit het westen
Temperatuur 29°C
Vochtigheid 74%
Druk 1012 hPa
Zicht 10 km of meer
Gebroken wolken op 1200 ft

METAR: DNMM 191500Z 27010KT 9999 BKN012 29/24 Q1012 NOSIG

Tijdstip: 01:12 (00:12 UTC)

Verwachting

Dit bericht is 8 uur en het 22 minuten geleden gemaakt, om 15:50 UTC
Verwachting geldig van 19 om 18 UTC tot 20 om 24 UTC
Wind 2 kt uit variabele richting
Zicht 10 km of meer
Verspreide wolken op 900 ft
Kans 30% :
Tijdelijke
van 19 om 21 UTC tot 20 om 03 UTC
Zicht: 5000 m
Gebroken wolken op 800 ft
regen
Wijzigt naar
van 20 om 08 UTC tot 20 om 10 UTC
Wind 10 kt uit het westen
Gebroken wolken op 1300 ft

TAF: DNMM 191550Z 1918/2024 VRB02KT 9999 SCT009 PROB30 TEMPO 1921/2003 5000 RA BKN008 BECMG 2008/2010 27010KT BKN013

Waarnemingen en weersverwachtingen van meer dan 4000 vliegvelden (METAR en TAF).

De beschikbare stations zijn de gele en rode punten op de kaart.

Ga met uw muis naar het station om de naam te zien.

Klik dan om waarnemingen en weersverwachtingen te zien.

kaart wijzigen: klik op de groene knoppen met een zwart kruis om in te zoomen, op de groene knop met een streepje om uit te zoomen of op de groene pijlen voor aangrenzende kaarten.


METAR-TAF: